Hlavní strana
METAR-TAF:

METAR-TAF

Letiště :

Tottori, Japonsko

zeměpisná šířka: 35-32N, zeměpisná délka: 134-10E, výška: 15 m

Aktuální stav počasí

Zpráva byla vytvořena před 1 hodinou a 16 minutami, v 08:00 UTC
Severozápadní vítr 3 kt, proměnlivý mezi západním a severním
Teplota 13°C
Vlhkost vzduchu 72%
Tlak 1023 hPa
Viditelnost 10 km a více
Skoro jasno ve výšce 4000 ft
Oblačno až skoro zataženo

METAR: RJOR 240800Z 31003KT 280V350 9999 FEW040 BKN/// 13/08 Q1023

Čas: 18:16 (09:16 UTC)


TAF: chybějící

Stav a předpovědi počasí z více než 4 000 letišť (zprávy METAR a TAF).

Červené a žluté tečky na mapě představují dostupné meteorologické stanice.

Když kurzor umístíte na tečku, zobrazí se název stanice.

Pak kliknutím zobrazíte stav a předpověď počasí.

Chcete-li změnit mapu, kliknutím na zelené tlačítko se znaménkem +mapu přiblížíte, kliknutím na zelené tlačítko se znaménkem – mapu oddálíte a kliknutím na zelené šipky přejdete na sousední mapy.


METAR-TAF: